KHIB/HIB METAR and TAF weather

Enter ICAO airport designator
Station Type Date Time Source
KHIB METAR 2021/01/16 01:53 UTC NOAA

KHIB 160153Z AUTO 35008KT 10SM BKN011 OVC029 M01/M03 A2978 RMK AO2 SLP104 T10061028


Station Type Date Time Source
KHIB Decoded METAR 2021/01/16 01:53 UTC NOAA

CHISHOLM-HIBBING AIRPORT, MN, United States (KHIB) 47-23N 92-50W 412M
Jan 15, 2021 - 08:53 PM EST / 2021.01.16 0153 UTC
Wind: from the N (350 degrees) at 9 MPH (8 KT):0
Visibility: 10 mile(s):0
Sky conditions: overcast
Temperature: 30.9 F (-0.6 C)
Windchill: 23 F (-5 C):1
Dew Point: 27.0 F (-2.8 C)
Relative Humidity: 85%
Pressure (altimeter): 29.78 in. Hg (1008 hPa)
ob: KHIB 160153Z AUTO 35008KT 10SM BKN011 OVC029 M01/M03 A2978 RMK AO2 SLP104 T10061028
cycle: 2

Station Type Date Time Source
KHIB TAF 2021/01/16 01:57 UTC NOAA

TAF
AMD KHIB 160057Z 1601/1624 34009KT 6SM BR VCSH OVC011
FM160600 34008KT 5SM BR OVC010
FM160900 34006KT P6SM OVC007
FM161500 34006KT 5SM -SN BR OVC007
FM162000 33006KT P6SM OVC015

Example: see airport list